Time;durP1;ratioP1;P1;durP2;ratioP2;P2;SDS_P1;SDS_P2;PMS_P1;PMS_P2;Temp;Humidity;BMP_temperature;BMP_pressure;BME280_temperature;BME280_humidity;BME280_pressure;Samples;Min_cycle;Max_cycle;Signal;HPM_P1;HPM_P2
2023/04/28 00:01:14;;;;;;;11.60;2.85;;;;;;;;;;5043206;28;20577;-45
2023/04/28 00:03:40;;;;;;;8.35;2.92;;;;;;;;;;5043278;28;20028;-41
2023/04/28 00:06:05;;;;;;;10.13;3.25;;;;;;;;;;5042164;28;21665;-45
2023/04/28 00:08:31;;;;;;;7.13;3.13;;;;;;;;;;5040418;28;20032;-44
2023/04/28 00:10:56;;;;;;;9.75;3.17;;;;;;;;;;5043085;28;20052;-48
2023/04/28 00:13:21;;;;;;;8.18;3.00;;;;;;;;;;5044537;28;20017;-47
2023/04/28 00:15:49;;;;;;;11.32;2.78;;;;;;;;;;5044588;28;20038;-48
2023/04/28 00:18:14;;;;;;;9.60;3.03;;;;;;;;;;5041668;28;20104;-47
2023/04/28 00:20:39;;;;;;;6.53;3.05;;;;;;;;;;5041563;28;20128;-47
2023/04/28 00:23:05;;;;;;;12.40;3.35;;;;;;;;;;5043674;28;20044;-49
2023/04/28 00:25:30;;;;;;;9.43;3.13;;;;;;;;;;5041777;28;20041;-44
2023/04/28 00:27:55;;;;;;;3.58;2.83;;;;;;;;;;5042432;28;20029;-47
2023/04/28 00:30:21;;;;;;;5.00;3.08;;;;;;;;;;5040302;28;20048;-46
2023/04/28 00:32:47;;;;;;;4.65;2.60;;;;;;;;;;5040805;28;20029;-46
2023/04/28 00:35:12;;;;;;;8.93;2.83;;;;;;;;;;5043537;28;20037;-44
2023/04/28 00:37:38;;;;;;;7.78;3.20;;;;;;;;;;5043565;28;20029;-50
2023/04/28 00:40:04;;;;;;;6.50;2.90;;;;;;;;;;5044079;28;20047;-49
2023/04/28 00:42:30;;;;;;;6.30;2.60;;;;;;;;;;5041618;28;20079;-48
2023/04/28 00:44:55;;;;;;;9.45;3.05;;;;;;;;;;5041988;28;20739;-47
2023/04/28 00:47:21;;;;;;;7.85;3.00;;;;;;;;;;5043402;28;20091;-49
2023/04/28 00:49:48;;;;;;;7.38;2.95;;;;;;;;;;5043899;28;20036;-48
2023/04/28 00:52:14;;;;;;;8.32;2.78;;;;;;;;;;5041164;28;20570;-48
2023/04/28 00:54:41;;;;;;;7.82;2.97;;;;;;;;;;5041469;28;20037;-47
2023/04/28 00:57:08;;;;;;;8.85;3.08;;;;;;;;;;5042970;28;20040;-47
2023/04/28 00:59:34;;;;;;;4.40;2.88;;;;;;;;;;5038331;28;20032;-43
2023/04/28 01:02:00;;;;;;;6.57;2.75;;;;;;;;;;5047966;28;20071;-44
2023/04/28 01:04:26;;;;;;;7.50;2.83;;;;;;;;;;5044944;28;20028;-49
2023/04/28 01:06:54;;;;;;;4.13;2.85;;;;;;;;;;5043748;28;20043;-42
2023/04/28 01:09:20;;;;;;;10.00;3.25;;;;;;;;;;5047168;28;20036;-42
2023/04/28 01:11:45;;;;;;;8.32;2.78;;;;;;;;;;5046501;28;20038;-42
2023/04/28 01:14:10;;;;;;;5.25;3.15;;;;;;;;;;5046135;28;20720;-43
2023/04/28 01:16:37;;;;;;;12.10;3.30;;;;;;;;;;5044255;28;20218;-42
2023/04/28 01:19:06;;;;;;;6.88;2.97;;;;;;;;;;5044968;28;20062;-45
2023/04/28 01:21:32;;;;;;;9.30;3.42;;;;;;;;;;5045277;28;20440;-43
2023/04/28 01:23:58;;;;;;;7.03;3.05;;;;;;;;;;5047162;28;20021;-44
2023/04/28 01:26:24;;;;;;;5.32;2.67;;;;;;;;;;5045891;28;20533;-42
2023/04/28 01:28:49;;;;;;;10.60;2.88;;;;;;;;;;5044767;28;20029;-46
2023/04/28 01:31:15;;;;;;;5.88;2.28;;;;;;;;;;5044810;28;23559;-43
2023/04/28 01:33:41;;;;;;;5.68;2.55;;;;;;;;;;5044227;28;20033;-44
2023/04/28 01:36:06;;;;;;;4.97;2.22;;;;;;;;;;5046286;28;20035;-42
2023/04/28 01:38:31;;;;;;;8.55;3.20;;;;;;;;;;5043172;28;20037;-45
2023/04/28 01:40:58;;;;;;;6.93;2.67;;;;;;;;;;5046032;28;20033;-44
2023/04/28 01:43:23;;;;;;;4.88;2.40;;;;;;;;;;5046419;28;20025;-44
2023/04/28 01:45:49;;;;;;;7.00;2.97;;;;;;;;;;5044108;28;20440;-44
2023/04/28 01:48:14;;;;;;;7.80;2.55;;;;;;;;;;5049581;28;20059;-42
2023/04/28 01:50:39;;;;;;;7.15;2.65;;;;;;;;;;5043825;28;20043;-43
2023/04/28 01:53:05;;;;;;;8.38;2.67;;;;;;;;;;5043810;28;20034;-45
2023/04/28 01:55:30;;;;;;;8.93;3.15;;;;;;;;;;5045446;28;20075;-44
2023/04/28 01:57:57;;;;;;;3.78;2.42;;;;;;;;;;5045582;28;20041;-44
2023/04/28 02:00:22;;;;;;;12.38;2.60;;;;;;;;;;5044858;28;20025;-43
2023/04/28 02:02:48;;;;;;;6.78;3.30;;;;;;;;;;5044149;28;20039;-42
2023/04/28 02:05:13;;;;;;;4.70;2.17;;;;;;;;;;5043216;28;20419;-43
2023/04/28 02:07:39;;;;;;;7.63;2.60;;;;;;;;;;5045726;28;20025;-41
2023/04/28 02:10:04;;;;;;;4.45;2.08;;;;;;;;;;5044628;28;20094;-43
2023/04/28 02:12:30;;;;;;;9.27;2.75;;;;;;;;;;5045414;28;20041;-42
2023/04/28 02:14:55;;;;;;;5.05;2.25;;;;;;;;;;5046055;28;20044;-41
2023/04/28 02:17:20;;;;;;;6.28;2.30;;;;;;;;;;5044933;28;20080;-42
2023/04/28 02:19:46;;;;;;;5.80;2.10;;;;;;;;;;5043323;28;20025;-42
2023/04/28 02:22:11;;;;;;;5.82;2.28;;;;;;;;;;5043806;28;20049;-43
2023/04/28 02:24:37;;;;;;;5.15;2.13;;;;;;;;;;5044050;28;20417;-41
2023/04/28 02:27:04;;;;;;;5.20;2.30;;;;;;;;;;5044906;28;20052;-42
2023/04/28 02:29:29;;;;;;;5.05;2.58;;;;;;;;;;5044427;28;20022;-42
2023/04/28 02:31:55;;;;;;;6.40;2.50;;;;;;;;;;5042038;28;20171;-43
2023/04/28 02:34:20;;;;;;;6.65;3.00;;;;;;;;;;5045857;28;20175;-44
2023/04/28 02:36:47;;;;;;;5.13;2.25;;;;;;;;;;5042496;28;20037;-44
2023/04/28 02:39:12;;;;;;;4.97;2.35;;;;;;;;;;5045724;28;20488;-41
2023/04/28 02:41:38;;;;;;;8.48;2.08;;;;;;;;;;5042966;28;20033;-45
2023/04/28 02:44:03;;;;;;;7.00;2.40;;;;;;;;;;5046329;28;20040;-41
2023/04/28 02:46:29;;;;;;;5.32;2.35;;;;;;;;;;5044747;28;20037;-42
2023/04/28 02:48:54;;;;;;;6.47;2.70;;;;;;;;;;5044170;28;20037;-42
2023/04/28 02:51:19;;;;;;;3.80;2.50;;;;;;;;;;5043101;28;20040;-44
2023/04/28 02:53:45;;;;;;;5.10;2.30;;;;;;;;;;5046239;28;20017;-45
2023/04/28 02:56:10;;;;;;;4.88;2.45;;;;;;;;;;5044012;28;20444;-43
2023/04/28 02:58:36;;;;;;;6.47;2.63;;;;;;;;;;5045214;28;20045;-42
2023/04/28 03:01:01;;;;;;;6.82;2.00;;;;;;;;;;5042639;28;20120;-44
2023/04/28 03:03:27;;;;;;;7.50;2.58;;;;;;;;;;5044659;28;20416;-43
2023/04/28 03:05:52;;;;;;;7.55;2.25;;;;;;;;;;5044697;28;20037;-47
2023/04/28 03:08:19;;;;;;;8.02;3.10;;;;;;;;;;5044855;28;20029;-41
2023/04/28 03:10:45;;;;;;;8.73;2.50;;;;;;;;;;5042258;28;20041;-43
2023/04/28 03:13:10;;;;;;;9.95;2.70;;;;;;;;;;5045189;28;20032;-42
2023/04/28 03:15:36;;;;;;;6.53;2.60;;;;;;;;;;5042403;28;20053;-42
2023/04/28 03:18:01;;;;;;;4.55;2.50;;;;;;;;;;5043924;28;20055;-42
2023/04/28 03:20:27;;;;;;;7.03;2.53;;;;;;;;;;5041294;28;20045;-46
2023/04/28 03:22:52;;;;;;;9.77;2.60;;;;;;;;;;5045246;28;20408;-43
2023/04/28 03:25:17;;;;;;;4.07;2.13;;;;;;;;;;5043140;28;20055;-42
2023/04/28 03:27:43;;;;;;;4.07;2.03;;;;;;;;;;5044483;28;20556;-44
2023/04/28 03:30:09;;;;;;;13.20;2.15;;;;;;;;;;5042592;28;20029;-41
2023/04/28 03:32:35;;;;;;;5.10;2.40;;;;;;;;;;5043586;28;20398;-42
2023/04/28 03:35:00;;;;;;;4.63;2.15;;;;;;;;;;5044365;28;20036;-41
2023/04/28 03:37:26;;;;;;;6.25;2.28;;;;;;;;;;5042784;28;20045;-45
2023/04/28 03:39:51;;;;;;;4.85;2.10;;;;;;;;;;5042875;28;20041;-42
2023/04/28 03:42:16;;;;;;;5.97;2.45;;;;;;;;;;5043683;28;20061;-43
2023/04/28 03:44:42;;;;;;;5.50;1.95;;;;;;;;;;5042442;28;20552;-42
2023/04/28 03:47:07;;;;;;;7.45;2.20;;;;;;;;;;5042783;28;20095;-42
2023/04/28 03:49:33;;;;;;;6.68;2.55;;;;;;;;;;5042253;28;20159;-42
2023/04/28 03:51:58;;;;;;;4.25;2.13;;;;;;;;;;5042590;28;20065;-45
2023/04/28 03:54:23;;;;;;;7.43;2.20;;;;;;;;;;5044554;28;20401;-42
2023/04/28 03:56:49;;;;;;;9.27;2.45;;;;;;;;;;5042989;28;20043;-42
2023/04/28 03:59:14;;;;;;;4.72;2.13;;;;;;;;;;5041814;28;20036;-42
2023/04/28 04:01:39;;;;;;;7.15;2.30;;;;;;;;;;5042110;28;20635;-42
2023/04/28 04:04:05;;;;;;;5.07;2.13;;;;;;;;;;5043096;28;20480;-42
2023/04/28 04:06:31;;;;;;;6.70;2.20;;;;;;;;;;5042426;28;20722;-41
2023/04/28 04:08:57;;;;;;;8.70;2.30;;;;;;;;;;5043189;28;20393;-42
2023/04/28 04:11:22;;;;;;;5.43;2.10;;;;;;;;;;5041031;28;20079;-42
2023/04/28 04:13:47;;;;;;;5.03;2.10;;;;;;;;;;5044228;28;20028;-44
2023/04/28 04:16:14;;;;;;;7.03;2.58;;;;;;;;;;5042210;28;20037;-43
2023/04/28 04:18:40;;;;;;;6.25;2.38;;;;;;;;;;5043925;28;20028;-43
2023/04/28 04:21:05;;;;;;;25.50;2.90;;;;;;;;;;5040896;28;20040;-43
2023/04/28 04:23:31;;;;;;;7.63;2.30;;;;;;;;;;5043370;28;20041;-43
2023/04/28 04:25:56;;;;;;;11.32;2.38;;;;;;;;;;5041369;28;20033;-47
2023/04/28 04:28:21;;;;;;;4.55;2.20;;;;;;;;;;5038829;28;20029;-41
2023/04/28 04:30:47;;;;;;;8.68;2.25;;;;;;;;;;5043254;28;20044;-43
2023/04/28 04:33:12;;;;;;;7.32;2.50;;;;;;;;;;5043245;28;20115;-42
2023/04/28 04:35:38;;;;;;;4.35;2.00;;;;;;;;;;5042506;28;20037;-42
2023/04/28 04:38:03;;;;;;;4.10;2.10;;;;;;;;;;5038330;28;20025;-41
2023/04/28 04:40:28;;;;;;;5.63;2.00;;;;;;;;;;5035204;28;20130;-45
2023/04/28 04:42:54;;;;;;;3.08;1.92;;;;;;;;;;5039629;28;20500;-43
2023/04/28 04:45:20;;;;;;;6.20;2.40;;;;;;;;;;5040260;28;20022;-44
2023/04/28 04:47:45;;;;;;;8.40;2.10;;;;;;;;;;5041418;28;20111;-43
2023/04/28 04:50:11;;;;;;;7.60;2.30;;;;;;;;;;5041144;28;20090;-45
2023/04/28 04:52:37;;;;;;;4.25;1.95;;;;;;;;;;5042576;28;20021;-42
2023/04/28 04:55:03;;;;;;;3.55;1.98;;;;;;;;;;5042366;28;20048;-42
2023/04/28 04:57:28;;;;;;;4.28;2.33;;;;;;;;;;5041006;28;20034;-43
2023/04/28 04:59:54;;;;;;;8.90;2.45;;;;;;;;;;5042802;28;20504;-46
2023/04/28 05:02:19;;;;;;;8.48;2.42;;;;;;;;;;5040735;28;20056;-44
2023/04/28 05:04:45;;;;;;;9.60;2.38;;;;;;;;;;5043299;28;20040;-42
2023/04/28 05:07:10;;;;;;;4.53;1.80;;;;;;;;;;5040738;28;20057;-45
2023/04/28 05:09:35;;;;;;;5.60;2.30;;;;;;;;;;5041870;28;20459;-42
2023/04/28 05:12:01;;;;;;;6.30;2.10;;;;;;;;;;5039455;28;20041;-42
2023/04/28 05:14:26;;;;;;;7.75;2.53;;;;;;;;;;5042582;28;20040;-42
2023/04/28 05:16:51;;;;;;;14.25;2.40;;;;;;;;;;5043079;28;20467;-41
2023/04/28 05:19:17;;;;;;;6.78;2.13;;;;;;;;;;5042514;28;20029;-42
2023/04/28 05:21:42;;;;;;;5.60;2.30;;;;;;;;;;5040216;28;20440;-42
2023/04/28 05:24:08;;;;;;;4.57;2.10;;;;;;;;;;5041979;28;20098;-44
2023/04/28 05:26:34;;;;;;;5.80;2.38;;;;;;;;;;5040299;28;20414;-41
2023/04/28 05:29:00;;;;;;;5.60;2.10;;;;;;;;;;5041815;28;20385;-42
2023/04/28 05:31:25;;;;;;;6.32;2.00;;;;;;;;;;5041691;28;20120;-41
2023/04/28 05:33:51;;;;;;;4.22;2.17;;;;;;;;;;5042492;28;20036;-42
2023/04/28 05:36:16;;;;;;;4.28;2.20;;;;;;;;;;5041041;28;20029;-41
2023/04/28 05:38:42;;;;;;;2.22;1.85;;;;;;;;;;5042850;28;20108;-42
2023/04/28 05:41:08;;;;;;;6.55;2.45;;;;;;;;;;5039711;28;20084;-43
2023/04/28 05:43:33;;;;;;;4.68;2.00;;;;;;;;;;5040075;28;20545;-45
2023/04/28 05:45:59;;;;;;;8.07;2.15;;;;;;;;;;5040572;28;20059;-42
2023/04/28 05:48:25;;;;;;;7.32;2.15;;;;;;;;;;5045538;28;20025;-41
2023/04/28 05:50:50;;;;;;;6.10;2.15;;;;;;;;;;5044774;28;20107;-41
2023/04/28 05:53:15;;;;;;;8.82;2.42;;;;;;;;;;5043810;28;20119;-42
2023/04/28 05:55:41;;;;;;;4.05;2.00;;;;;;;;;;5046102;28;20041;-42
2023/04/28 05:58:07;;;;;;;10.50;2.58;;;;;;;;;;5041806;28;20017;-42
2023/04/28 06:00:33;;;;;;;8.38;2.17;;;;;;;;;;5042365;28;20037;-44
2023/04/28 06:02:59;;;;;;;7.13;2.17;;;;;;;;;;5041913;28;20473;-43
2023/04/28 06:05:24;;;;;;;4.65;2.25;;;;;;;;;;5045521;28;20044;-43
2023/04/28 06:07:49;;;;;;;5.32;2.13;;;;;;;;;;5046625;28;20031;-45
2023/04/28 06:10:15;;;;;;;4.05;2.35;;;;;;;;;;5039754;28;20075;-41
2023/04/28 06:12:41;;;;;;;8.07;2.15;;;;;;;;;;5045828;28;20473;-45
2023/04/28 06:15:06;;;;;;;5.15;2.45;;;;;;;;;;5046125;28;20098;-42
2023/04/28 06:17:33;;;;;;;5.32;1.98;;;;;;;;;;5039145;28;20049;-42
2023/04/28 06:19:58;;;;;;;4.35;2.05;;;;;;;;;;5042582;28;20510;-43
2023/04/28 06:22:27;;;;;;;4.43;2.03;;;;;;;;;;5035652;28;20108;-43
2023/04/28 06:24:52;;;;;;;5.07;2.13;;;;;;;;;;5041397;28;20386;-42
2023/04/28 06:27:17;;;;;;;4.57;1.95;;;;;;;;;;5044500;28;20038;-43
2023/04/28 06:29:43;;;;;;;6.45;2.22;;;;;;;;;;5043318;28;20378;-44
2023/04/28 06:32:09;;;;;;;5.50;2.10;;;;;;;;;;5037520;28;20055;-43
2023/04/28 06:34:34;;;;;;;7.00;2.20;;;;;;;;;;5042959;28;20033;-44
2023/04/28 06:37:00;;;;;;;3.85;1.77;;;;;;;;;;5040054;28;20037;-45
2023/04/28 06:39:26;;;;;;;10.85;2.30;;;;;;;;;;5040558;28;20036;-39
2023/04/28 06:41:52;;;;;;;2.72;1.88;;;;;;;;;;5043692;28;20037;-49
2023/04/28 06:44:18;;;;;;;6.15;1.90;;;;;;;;;;5041093;28;20040;-43
2023/04/28 06:46:43;;;;;;;6.22;1.73;;;;;;;;;;5039651;28;20048;-45
2023/04/28 06:49:09;;;;;;;4.20;1.70;;;;;;;;;;5042605;28;20024;-43
2023/04/28 06:51:34;;;;;;;5.63;2.20;;;;;;;;;;5042292;28;20400;-46
2023/04/28 06:56:35;;;;;;;4.93;1.85;;;;;;;;;;4304361;23;20053;-42
2023/04/28 06:59:02;;;;;;;6.82;2.15;;;;;;;;;;5021534;28;20854;-43
2023/04/28 07:01:27;;;;;;;3.72;1.77;;;;;;;;;;5022503;28;20084;-41
2023/04/28 07:03:53;;;;;;;4.55;2.13;;;;;;;;;;5025724;28;20492;-43
2023/04/28 07:06:19;;;;;;;5.63;2.05;;;;;;;;;;5022915;28;20049;-43
2023/04/28 07:08:44;;;;;;;10.70;2.55;;;;;;;;;;5023328;28;20128;-42
2023/04/28 07:11:10;;;;;;;4.30;2.20;;;;;;;;;;5017724;28;20125;-43
2023/04/28 07:13:35;;;;;;;5.00;1.83;;;;;;;;;;5023244;28;20033;-42
2023/04/28 07:16:00;;;;;;;5.10;1.95;;;;;;;;;;5021841;28;20051;-42
2023/04/28 07:18:26;;;;;;;1.83;1.50;;;;;;;;;;5021963;28;20021;-41
2023/04/28 07:20:51;;;;;;;3.97;1.60;;;;;;;;;;5020761;28;20409;-40
2023/04/28 07:23:17;;;;;;;5.43;1.60;;;;;;;;;;5023967;28;20025;-42
2023/04/28 07:25:42;;;;;;;4.13;1.58;;;;;;;;;;5019433;28;20050;-45
2023/04/28 07:28:08;;;;;;;5.60;1.90;;;;;;;;;;5023738;28;20021;-41
2023/04/28 07:30:34;;;;;;;5.70;1.85;;;;;;;;;;5023110;28;20148;-42
2023/04/28 07:33:00;;;;;;;5.25;2.00;;;;;;;;;;5023919;28;20021;-41
2023/04/28 07:35:25;;;;;;;6.25;1.55;;;;;;;;;;5022936;28;20029;-42
2023/04/28 07:37:51;;;;;;;2.78;1.70;;;;;;;;;;5023451;28;20026;-41
2023/04/28 07:40:17;;;;;;;7.47;1.63;;;;;;;;;;5019964;28;20021;-42
2023/04/28 07:42:43;;;;;;;4.50;1.80;;;;;;;;;;5023793;28;20037;-42
2023/04/28 07:45:09;;;;;;;4.28;1.40;;;;;;;;;;5022998;28;20389;-43
2023/04/28 07:47:35;;;;;;;5.75;1.40;;;;;;;;;;5019668;28;20068;-45
2023/04/28 07:50:05;;;;;;;8.02;2.10;;;;;;;;;;5023909;28;20533;-43
2023/04/28 07:52:34;;;;;;;6.38;1.55;;;;;;;;;;5024060;28;20053;-47
2023/04/28 07:55:01;;;;;;;7.15;1.50;;;;;;;;;;5023256;28;20033;-41
2023/04/28 07:57:28;;;;;;;9.05;1.80;;;;;;;;;;5023375;28;20055;-41
2023/04/28 07:59:53;;;;;;;5.28;1.90;;;;;;;;;;5021723;28;20083;-41
2023/04/28 08:02:19;;;;;;;5.18;1.55;;;;;;;;;;5020534;28;20058;-41
2023/04/28 08:04:45;;;;;;;2.50;1.33;;;;;;;;;;5020711;28;20041;-41
2023/04/28 08:07:10;;;;;;;10.63;1.60;;;;;;;;;;5022981;28;20045;-41
2023/04/28 08:09:35;;;;;;;13.07;2.22;;;;;;;;;;5020390;28;20128;-41
2023/04/28 08:12:01;;;;;;;9.90;2.45;;;;;;;;;;5020332;28;20079;-44
2023/04/28 08:14:27;;;;;;;8.40;1.70;;;;;;;;;;5022664;28;20036;-41
2023/04/28 08:16:52;;;;;;;7.25;1.92;;;;;;;;;;5019839;28;20651;-43
2023/04/28 08:19:18;;;;;;;8.60;1.67;;;;;;;;;;5018599;28;20721;-42
2023/04/28 08:21:43;;;;;;;4.30;1.60;;;;;;;;;;5020858;28;20049;-42
2023/04/28 08:24:09;;;;;;;4.88;1.70;;;;;;;;;;5020416;28;20026;-42
2023/04/28 08:26:36;;;;;;;11.93;2.00;;;;;;;;;;5022938;28;20037;-42
2023/04/28 08:29:01;;;;;;;5.97;1.80;;;;;;;;;;5020982;28;20053;-41
2023/04/28 08:31:26;;;;;;;2.90;1.45;;;;;;;;;;5023299;28;20529;-41
2023/04/28 08:33:52;;;;;;;5.93;1.83;;;;;;;;;;5021712;28;20038;-43
2023/04/28 08:36:17;;;;;;;2.30;1.13;;;;;;;;;;5023101;28;20049;-41
2023/04/28 08:38:44;;;;;;;8.48;1.92;;;;;;;;;;5022674;28;20033;-42
2023/04/28 08:41:12;;;;;;;3.10;1.40;;;;;;;;;;5020200;28;20038;-42
2023/04/28 08:43:40;;;;;;;5.25;1.55;;;;;;;;;;5020470;28;20026;-41
2023/04/28 08:46:06;;;;;;;4.93;1.20;;;;;;;;;;5017197;28;20136;-42
2023/04/28 08:48:38;;;;;;;8.13;2.72;;;;;;;;;;5017437;28;20508;-41
2023/04/28 08:51:05;;;;;;;;;;;;;;;;;;5021880;28;20077;-43
2023/04/28 08:53:35;;;;;;;8.52;1.40;;;;;;;;;;5019804;28;19925;-43
2023/04/28 08:56:03;;;;;;;3.72;1.35;;;;;;;;;;5022364;28;20085;-42
2023/04/28 08:58:28;;;;;;;6.50;1.20;;;;;;;;;;5018888;28;20108;-42
2023/04/28 09:00:53;;;;;;;2.10;0.95;;;;;;;;;;5016399;28;20572;-41
2023/04/28 09:03:19;;;;;;;3.45;0.80;;;;;;;;;;5021781;28;20034;-44
2023/04/28 09:05:44;;;;;;;0.73;0.63;;;;;;;;;;5018756;28;20045;-42
2023/04/28 09:08:13;;;;;;;2.40;1.23;;;;;;;;;;5018798;28;20469;-41
2023/04/28 09:10:39;;;;;;;4.85;1.05;;;;;;;;;;5021907;28;20056;-43
2023/04/28 09:13:05;;;;;;;4.43;1.40;;;;;;;;;;5023187;28;20030;-41
2023/04/28 09:15:33;;;;;;;7.45;1.10;;;;;;;;;;5019343;28;20398;-42
2023/04/28 09:17:59;;;;;;;6.53;0.80;;;;;;;;;;5023133;28;20148;-42
2023/04/28 09:20:27;;;;;;;1.48;1.00;;;;;;;;;;5019182;28;20033;-42
2023/04/28 09:22:53;;;;;;;2.35;0.70;;;;;;;;;;5021260;28;20036;-51
2023/04/28 09:25:22;;;;;;;2.50;0.82;;;;;;;;;;5023705;28;20022;-41
2023/04/28 09:27:49;;;;;;;3.83;0.85;;;;;;;;;;5024982;28;20060;-48
2023/04/28 09:30:14;;;;;;;1.80;0.80;;;;;;;;;;5025216;28;20128;-42
2023/04/28 09:32:40;;;;;;;2.58;0.95;;;;;;;;;;5025465;28;20108;-41
2023/04/28 09:35:06;;;;;;;3.67;0.98;;;;;;;;;;5023780;28;20037;-45
2023/04/28 09:37:33;;;;;;;4.95;1.10;;;;;;;;;;5023915;28;20045;-47
2023/04/28 09:40:07;;;;;;;9.82;1.42;;;;;;;;;;5022650;28;20025;-42
2023/04/28 09:42:36;;;;;;;0.73;0.73;;;;;;;;;;5021356;28;20057;-45
2023/04/28 09:45:06;;;;;;;2.20;1.10;;;;;;;;;;5023521;28;20033;-41
2023/04/28 09:47:34;;;;;;;5.40;1.23;;;;;;;;;;5024358;28;20049;-47
2023/04/28 09:50:03;;;;;;;3.95;1.30;;;;;;;;;;5022313;28;20068;-42
2023/04/28 09:52:29;;;;;;;2.70;1.17;;;;;;;;;;5022013;28;20129;-41
2023/04/28 09:54:55;;;;;;;1.85;1.20;;;;;;;;;;5023945;28;20730;-41
2023/04/28 09:57:22;;;;;;;4.07;1.55;;;;;;;;;;5022568;28;20255;-46
2023/04/28 09:59:50;;;;;;;3.20;1.50;;;;;;;;;;5024239;28;20022;-47
2023/04/28 10:02:17;;;;;;;4.00;1.27;;;;;;;;;;5023299;28;20510;-45
2023/04/28 10:04:44;;;;;;;8.80;1.50;;;;;;;;;;5023161;28;20029;-42
2023/04/28 10:07:12;;;;;;;2.63;1.75;;;;;;;;;;5024329;28;20533;-45
2023/04/28 10:09:38;;;;;;;8.18;1.88;;;;;;;;;;5024343;28;20041;-42
2023/04/28 10:12:05;;;;;;;3.33;1.38;;;;;;;;;;5025357;28;20056;-43
2023/04/28 10:14:32;;;;;;;4.85;1.33;;;;;;;;;;5022257;28;20036;-41
2023/04/28 10:16:58;;;;;;;13.18;1.55;;;;;;;;;;5017543;28;20042;-42
2023/04/28 10:19:24;;;;;;;5.82;1.30;;;;;;;;;;5021034;28;20066;-43
2023/04/28 10:22:21;;;;;;;5.25;1.23;;;;;;;;;;5020765;28;20033;-46
2023/04/28 10:25:22;;;;;;;3.50;1.27;;;;;;;;;;5021944;28;20026;-42
2023/04/28 10:27:49;;;;;;;4.28;1.08;;;;;;;;;;5022688;28;20053;-46
2023/04/28 10:30:20;;;;;;;5.55;1.20;;;;;;;;;;5023756;28;20041;-45
2023/04/28 10:32:46;;;;;;;7.53;1.20;;;;;;;;;;5021585;28;20021;-47
2023/04/28 10:35:39;;;;;;;2.30;1.00;;;;;;;;;;5023115;28;20459;-43
2023/04/28 10:38:09;;;;;;;8.07;1.77;;;;;;;;;;5015828;28;20083;-42
2023/04/28 10:40:37;;;;;;;6.18;1.65;;;;;;;;;;5020491;28;20550;-46
2023/04/28 10:43:04;;;;;;;8.38;1.80;;;;;;;;;;5022324;28;20098;-42
2023/04/28 10:45:47;;;;;;;5.85;1.60;;;;;;;;;;5023364;28;20546;-49
2023/04/28 10:48:13;;;;;;;9.48;2.00;;;;;;;;;;5023809;28;20045;-43
2023/04/28 10:51:08;;;;;;;4.57;1.50;;;;;;;;;;5024310;28;20046;-45
2023/04/28 10:53:45;;;;;;;6.25;1.58;;;;;;;;;;5022691;28;20079;-42
2023/04/28 10:56:24;;;;;;;6.68;1.50;;;;;;;;;;5022939;28;20103;-43
2023/04/28 10:58:54;;;;;;;6.55;1.50;;;;;;;;;;5020919;28;20029;-45
2023/04/28 11:01:30;;;;;;;3.50;2.10;;;;;;;;;;5020147;28;20049;-47
2023/04/28 11:04:02;;;;;;;4.25;1.90;;;;;;;;;;5021641;28;20041;-42
2023/04/28 11:06:39;;;;;;;4.80;2.10;;;;;;;;;;5022690;28;20069;-43
2023/04/28 11:09:31;;;;;;;4.85;1.48;;;;;;;;;;5023076;28;20036;-45
2023/04/28 11:11:59;;;;;;;3.10;1.50;;;;;;;;;;5020808;28;20048;-49
2023/04/28 11:14:24;;;;;;;4.28;1.50;;;;;;;;;;5021050;28;20045;-42
2023/04/28 11:16:58;;;;;;;4.43;1.10;;;;;;;;;;5021655;28;20033;-43
2023/04/28 11:19:25;;;;;;;4.25;2.10;;;;;;;;;;5021881;28;20033;-42
2023/04/28 11:21:53;;;;;;;7.93;1.67;;;;;;;;;;5021665;28;20061;-45
2023/04/28 11:24:19;;;;;;;14.52;2.63;;;;;;;;;;5024305;28;20079;-51
2023/04/28 11:26:44;;;;;;;6.50;2.13;;;;;;;;;;5019040;28;20029;-42
2023/04/28 11:29:11;;;;;;;3.33;1.50;;;;;;;;;;5021407;28;20462;-43
2023/04/28 11:31:37;;;;;;;5.93;1.40;;;;;;;;;;5024017;28;20044;-43
2023/04/28 11:34:05;;;;;;;2.72;1.30;;;;;;;;;;5020759;28;20033;-43
2023/04/28 11:36:32;;;;;;;3.42;1.15;;;;;;;;;;5023686;28;20096;-44
2023/04/28 11:38:58;;;;;;;5.18;1.95;;;;;;;;;;5023034;28;20026;-43
2023/04/28 11:41:25;;;;;;;2.92;1.77;;;;;;;;;;5021506;28;20087;-44
2023/04/28 11:43:51;;;;;;;3.75;1.50;;;;;;;;;;5018857;28;20116;-42
2023/04/28 11:46:22;;;;;;;1.50;1.23;;;;;;;;;;5021279;28;20796;-42
2023/04/28 11:48:48;;;;;;;4.07;1.57;;;;;;;;;;5020315;28;20038;-42
2023/04/28 11:51:34;;;;;;;2.80;1.30;;;;;;;;;;5021030;28;20582;-43
2023/04/28 11:54:00;;;;;;;4.20;1.80;;;;;;;;;;5022234;28;20034;-42
2023/04/28 11:56:26;;;;;;;2.20;1.20;;;;;;;;;;5018980;28;20046;-43
2023/04/28 11:59:03;;;;;;;2.38;0.77;;;;;;;;;;5017491;28;20029;-42
2023/04/28 12:01:29;;;;;;;0.82;0.80;;;;;;;;;;5018894;28;20037;-42
2023/04/28 12:03:54;;;;;;;3.83;1.35;;;;;;;;;;5022731;28;20032;-42
2023/04/28 12:06:20;;;;;;;1.98;1.15;;;;;;;;;;5022758;28;20033;-45
2023/04/28 12:08:45;;;;;;;2.25;1.00;;;;;;;;;;5020570;28;20029;-48
2023/04/28 12:11:12;;;;;;;1.98;1.10;;;;;;;;;;5020360;28;20033;-46
2023/04/28 12:13:39;;;;;;;5.60;1.00;;;;;;;;;;5020960;28;20029;-42
2023/04/28 12:16:05;;;;;;;2.28;0.95;;;;;;;;;;5023155;28;20041;-50
2023/04/28 12:18:35;;;;;;;2.13;1.17;;;;;;;;;;5017615;28;20029;-45
2023/04/28 12:21:01;;;;;;;12.10;1.58;;;;;;;;;;5019880;28;20049;-45
2023/04/28 12:23:33;;;;;;;6.43;1.33;;;;;;;;;;5018635;28;20474;-46
2023/04/28 12:26:00;;;;;;;3.72;1.30;;;;;;;;;;5021823;28;20056;-45
2023/04/28 12:28:46;;;;;;;2.55;1.45;;;;;;;;;;5017774;28;20120;-48
2023/04/28 12:31:11;;;;;;;5.55;1.30;;;;;;;;;;5018868;28;20450;-43
2023/04/28 12:33:36;;;;;;;6.60;1.58;;;;;;;;;;5023701;28;20164;-49
2023/04/28 12:36:05;;;;;;;6.90;1.50;;;;;;;;;;5019039;28;20044;-46
2023/04/28 12:38:31;;;;;;;5.90;1.30;;;;;;;;;;5020798;28;20112;-44
2023/04/28 12:40:57;;;;;;;8.98;1.75;;;;;;;;;;5020831;28;20034;-48
2023/04/28 12:43:23;;;;;;;3.20;1.23;;;;;;;;;;5016698;28;20049;-45
2023/04/28 12:45:55;;;;;;;3.00;0.95;;;;;;;;;;5021625;28;20080;-50
2023/04/28 12:48:22;;;;;;;2.85;1.35;;;;;;;;;;5022065;28;20067;-46
2023/04/28 12:50:48;;;;;;;4.93;1.20;;;;;;;;;;5018903;28;21528;-47
2023/04/28 12:53:13;;;;;;;4.32;1.20;;;;;;;;;;5022967;28;20038;-44
2023/04/28 12:55:39;;;;;;;6.80;1.60;;;;;;;;;;5021224;28;20116;-45
2023/04/28 12:58:05;;;;;;;5.38;1.90;;;;;;;;;;5026824;28;20188;-46
2023/04/28 13:00:30;;;;;;;3.55;1.90;;;;;;;;;;5025966;28;20037;-44
2023/04/28 13:02:56;;;;;;;3.65;1.48;;;;;;;;;;5025150;28;20041;-45
2023/04/28 13:05:21;;;;;;;4.93;1.50;;;;;;;;;;5023086;28;20034;-45
2023/04/28 13:07:49;;;;;;;4.18;1.63;;;;;;;;;;5026025;28;20109;-44
2023/04/28 13:10:15;;;;;;;5.28;2.00;;;;;;;;;;5025218;28;20029;-41
2023/04/28 13:12:40;;;;;;;7.88;1.60;;;;;;;;;;5025654;28;20121;-43
2023/04/28 13:15:06;;;;;;;1.95;1.15;;;;;;;;;;5022716;28;20036;-49
2023/04/28 13:17:33;;;;;;;2.65;1.20;;;;;;;;;;5024963;28;20494;-48
2023/04/28 13:20:00;;;;;;;4.15;1.60;;;;;;;;;;5024566;28;20034;-46
2023/04/28 13:22:26;;;;;;;4.35;1.52;;;;;;;;;;5024881;28;20137;-43
2023/04/28 13:24:51;;;;;;;3.83;1.63;;;;;;;;;;5025086;28;20116;-43
2023/04/28 13:27:16;;;;;;;2.78;1.40;;;;;;;;;;5024950;28;20067;-42
2023/04/28 13:29:42;;;;;;;2.40;1.42;;;;;;;;;;5026816;28;20381;-42
2023/04/28 13:32:07;;;;;;;3.08;1.40;;;;;;;;;;5022954;28;20042;-47
2023/04/28 13:34:33;;;;;;;1.30;1.20;;;;;;;;;;5025117;28;20414;-43
2023/04/28 13:36:58;;;;;;;3.03;1.48;;;;;;;;;;5025578;28;20046;-42
2023/04/28 13:39:24;;;;;;;2.90;1.30;;;;;;;;;;5023927;28;20087;-42
2023/04/28 13:41:49;;;;;;;2.85;1.08;;;;;;;;;;5023458;28;20065;-42
2023/04/28 13:44:15;;;;;;;1.88;1.20;;;;;;;;;;5028174;28;20029;-42
2023/04/28 13:46:41;;;;;;;1.98;1.15;;;;;;;;;;5021461;28;20048;-42
2023/04/28 13:49:08;;;;;;;2.45;1.20;;;;;;;;;;5025950;28;20485;-42
2023/04/28 13:51:34;;;;;;;3.28;1.00;;;;;;;;;;5024160;28;20041;-42
2023/04/28 13:54:02;;;;;;;5.07;1.30;;;;;;;;;;5024973;28;20029;-41
2023/04/28 13:56:29;;;;;;;7.80;1.67;;;;;;;;;;5022524;28;20056;-42
2023/04/28 13:58:55;;;;;;;2.20;1.08;;;;;;;;;;5023323;28;20028;-44
2023/04/28 14:01:21;;;;;;;2.00;1.10;;;;;;;;;;5025389;28;20398;-42
2023/04/28 14:03:46;;;;;;;6.53;1.40;;;;;;;;;;5023705;28;20389;-42
2023/04/28 14:06:12;;;;;;;9.77;2.50;;;;;;;;;;5026849;28;20086;-44
2023/04/28 14:08:37;;;;;;;3.40;1.38;;;;;;;;;;5021668;28;20061;-42
2023/04/28 14:11:02;;;;;;;2.55;1.13;;;;;;;;;;5023118;28;20057;-43
2023/04/28 14:13:28;;;;;;;11.70;1.40;;;;;;;;;;5020928;28;20423;-46
2023/04/28 14:15:54;;;;;;;2.10;1.08;;;;;;;;;;5019850;28;20053;-43
2023/04/28 14:18:19;;;;;;;9.48;1.50;;;;;;;;;;5025206;28;20026;-42
2023/04/28 14:20:45;;;;;;;2.20;1.05;;;;;;;;;;5022025;28;20203;-41
2023/04/28 14:23:11;;;;;;;7.75;1.50;;;;;;;;;;5022562;28;20025;-45
2023/04/28 14:25:36;;;;;;;2.85;1.48;;;;;;;;;;5019869;28;20045;-42
2023/04/28 14:28:02;;;;;;;4.47;1.00;;;;;;;;;;5018474;28;20029;-46
2023/04/28 14:30:27;;;;;;;7.35;1.90;;;;;;;;;;5024190;28;20029;-42
2023/04/28 14:32:52;;;;;;;9.80;1.20;;;;;;;;;;5022124;28;20044;-42
2023/04/28 14:35:19;;;;;;;4.90;1.75;;;;;;;;;;5021604;28;20169;-44
2023/04/28 14:37:46;;;;;;;9.50;1.40;;;;;;;;;;5022363;28;20109;-42
2023/04/28 14:40:12;;;;;;;3.45;1.40;;;;;;;;;;5023735;28;20025;-40
2023/04/28 14:42:37;;;;;;;3.20;0.75;;;;;;;;;;5022619;28;20034;-43